createdAt,value
2023-03-26T00:00:18.140Z,99198.61
2023-03-26T00:02:48.581Z,99200.23
2023-03-26T00:05:18.997Z,99201.49
2023-03-26T00:07:49.688Z,99199.27
2023-03-26T00:10:20.724Z,99200.52
2023-03-26T00:12:51.051Z,99198.27
2023-03-26T00:15:21.477Z,99200.89
2023-03-26T00:17:54.328Z,99199.14
2023-03-26T00:20:27.387Z,99197.39
2023-03-26T00:22:58.114Z,99192.68
2023-03-26T00:25:28.543Z,99189.59
2023-03-26T00:27:58.868Z,99187.02
2023-03-26T00:30:29.311Z,99183.61
2023-03-26T00:33:00.063Z,99183.66
2023-03-26T00:35:31.320Z,99183.38
2023-03-26T00:38:02.207Z,99177.85
2023-03-26T00:40:36.765Z,99178.08
2023-03-26T00:43:19.460Z,99182.13
2023-03-26T00:45:53.209Z,99176.40
2023-03-26T00:48:34.209Z,99174.86
2023-03-26T00:51:15.542Z,99176.41
2023-03-26T00:53:49.120Z,99175.02
2023-03-26T00:56:20.238Z,99172.63
2023-03-26T00:58:51.301Z,99172.16
2023-03-26T01:01:27.927Z,99176.06
2023-03-26T01:04:18.585Z,99174.89
2023-03-26T01:06:49.221Z,99171.11
2023-03-26T01:09:22.038Z,99169.08
2023-03-26T01:11:52.744Z,99170.35
2023-03-26T01:14:26.870Z,99167.42
2023-03-26T01:16:59.698Z,99167.73
2023-03-26T01:19:38.099Z,99167.19
2023-03-26T01:22:11.221Z,99164.41
2023-03-26T01:24:42.463Z,99171.49
2023-03-26T01:27:25.879Z,99169.16
2023-03-26T01:30:04.865Z,99169.64
2023-03-26T01:32:51.393Z,99170.15
2023-03-26T01:35:31.771Z,99171.23
2023-03-26T01:38:15.106Z,99174.61
2023-03-26T01:40:51.438Z,99169.48
2023-03-26T01:43:29.664Z,99170.77
2023-03-26T01:46:03.764Z,99170.80
2023-03-26T01:48:39.051Z,99171.50
2023-03-26T01:51:10.858Z,99173.92
2023-03-26T01:53:46.094Z,99172.14
2023-03-26T01:56:26.624Z,99169.63
2023-03-26T01:59:10.869Z,99168.85
2023-03-26T02:01:54.854Z,99166.52
2023-03-26T02:04:31.690Z,99162.43
2023-03-26T02:07:09.319Z,99160.73
2023-03-26T02:09:45.741Z,99155.23
2023-03-26T02:12:17.432Z,99159.13
2023-03-26T02:14:48.249Z,99157.47
2023-03-26T02:17:19.313Z,99152.52
2023-03-26T02:19:49.695Z,99156.12
2023-03-26T02:22:21.074Z,99152.39
2023-03-26T02:24:51.402Z,99148.36
2023-03-26T02:27:22.043Z,99152.52
2023-03-26T02:29:52.700Z,99149.98
2023-03-26T02:32:25.841Z,99153.98
2023-03-26T02:34:57.747Z,99149.60
2023-03-26T02:37:30.508Z,99147.52
2023-03-26T02:40:11.127Z,99150.64
2023-03-26T02:42:42.630Z,99154.94
2023-03-26T02:45:13.425Z,99153.90
2023-03-26T02:48:16.200Z,99149.03
2023-03-26T02:51:09.579Z,99145.88
2023-03-26T02:54:12.399Z,99152.13
2023-03-26T02:56:56.272Z,99145.64
2023-03-26T02:59:46.955Z,99146.80
2023-03-26T03:02:40.417Z,99137.17
2023-03-26T03:05:31.555Z,99139.95
2023-03-26T03:08:21.520Z,99135.56
2023-03-26T03:11:05.054Z,99142.33
2023-03-26T03:13:43.276Z,99141.59
2023-03-26T03:16:13.709Z,99140.02
2023-03-26T03:18:44.086Z,99145.41
2023-03-26T03:21:14.565Z,99145.08
2023-03-26T03:23:44.890Z,99149.80
2023-03-26T03:26:21.680Z,99148.23
2023-03-26T03:28:57.721Z,99149.64
2023-03-26T03:31:29.253Z,99152.39
2023-03-26T03:34:04.719Z,99150.48
2023-03-26T03:36:38.581Z,99158.59
2023-03-26T03:39:20.770Z,99158.77
2023-03-26T03:41:51.268Z,99162.59
2023-03-26T03:44:21.974Z,99166.02
2023-03-26T03:46:54.158Z,99171.05
2023-03-26T03:49:24.940Z,99172.41
2023-03-26T03:51:55.476Z,99171.73
2023-03-26T03:54:31.202Z,99172.47
2023-03-26T03:57:22.033Z,99169.99
2023-03-26T04:00:08.932Z,99173.10
2023-03-26T04:02:49.881Z,99178.29
2023-03-26T04:05:20.332Z,99173.88
2023-03-26T04:07:51.642Z,99168.63
2023-03-26T04:10:38.697Z,99173.11
2023-03-26T04:13:11.518Z,99175.48
2023-03-26T04:15:55.206Z,99174.34
2023-03-26T04:18:27.778Z,99178.83
2023-03-26T04:21:02.600Z,99178.93
2023-03-26T04:23:34.810Z,99178.20
2023-03-26T04:26:16.286Z,99180.61
2023-03-26T04:29:17.398Z,99178.83
2023-03-26T04:31:58.779Z,99180.02
2023-03-26T04:34:30.009Z,99179.14
2023-03-26T04:37:24.591Z,99185.23
2023-03-26T04:40:09.564Z,99182.27
2023-03-26T04:42:46.366Z,99184.57
2023-03-26T04:45:30.352Z,99184.28
2023-03-26T04:48:02.428Z,99188.70
2023-03-26T04:50:33.118Z,99188.27
2023-03-26T04:53:04.903Z,99188.35
2023-03-26T04:56:01.507Z,99186.94
2023-03-26T04:59:04.619Z,99187.45
2023-03-26T05:01:40.178Z,99183.55
2023-03-26T05:04:11.371Z,99191.16
2023-03-26T05:06:43.027Z,99187.42
2023-03-26T05:09:22.238Z,99189.07
2023-03-26T05:12:13.683Z,99191.91
2023-03-26T05:15:00.837Z,99193.90
2023-03-26T05:17:42.800Z,99194.48
2023-03-26T05:20:22.168Z,99188.75
2023-03-26T05:22:53.187Z,99191.20
2023-03-26T05:25:27.886Z,99198.70
2023-03-26T05:27:58.537Z,99198.56
2023-03-26T05:30:33.589Z,99195.24
2023-03-26T05:33:04.668Z,99192.98
2023-03-26T05:35:43.568Z,99192.09
2023-03-26T05:38:14.261Z,99191.21
2023-03-26T05:40:44.632Z,99190.09
2023-03-26T05:43:23.936Z,99189.20
2023-03-26T05:46:10.630Z,99187.70
2023-03-26T05:48:41.249Z,99188.52
2023-03-26T05:51:12.437Z,99188.10
2023-03-26T05:53:45.268Z,99188.37
2023-03-26T05:56:34.369Z,99194.83
2023-03-26T05:59:30.422Z,99193.86
2023-03-26T06:02:19.342Z,99197.20
2023-03-26T06:05:15.659Z,99199.59
2023-03-26T06:07:57.581Z,99198.25
2023-03-26T06:10:34.991Z,99201.83
2023-03-26T06:13:06.240Z,99198.00
2023-03-26T06:15:39.235Z,99199.71
2023-03-26T06:18:24.825Z,99199.90
2023-03-26T06:21:14.010Z,99197.59
2023-03-26T06:23:51.612Z,99197.44
2023-03-26T06:26:54.298Z,99195.30
2023-03-26T06:29:43.652Z,99200.69
2023-03-26T06:32:34.728Z,99202.73
2023-03-26T06:35:11.751Z,99195.45
2023-03-26T06:37:42.466Z,99199.46
2023-03-26T06:40:15.807Z,99199.14
2023-03-26T06:43:18.831Z,99200.36
2023-03-26T06:46:08.686Z,99195.67
2023-03-26T06:48:43.044Z,99193.64
2023-03-26T06:51:32.152Z,99195.26
2023-03-26T06:54:11.363Z,99195.32
2023-03-26T06:56:48.260Z,99199.14
2023-03-26T06:59:41.709Z,99194.57
2023-03-26T07:02:31.136Z,99195.97
2023-03-26T07:05:41.525Z,99194.73
2023-03-26T07:08:14.495Z,99194.92
2023-03-26T07:11:03.361Z,99196.79
2023-03-26T07:13:56.854Z,99207.73
2023-03-26T07:16:50.372Z,99213.67
2023-03-26T07:19:41.042Z,99218.23
2023-03-26T07:22:16.767Z,99212.40
2023-03-26T07:25:07.993Z,99209.58
2023-03-26T07:28:07.229Z,99208.23
2023-03-26T07:31:22.548Z,99208.63
2023-03-26T07:34:09.159Z,99209.64
2023-03-26T07:36:53.465Z,99205.31
2023-03-26T07:39:53.067Z,99206.80
2023-03-26T07:42:44.596Z,99206.24
2023-03-26T07:45:39.762Z,99200.46
2023-03-26T07:48:40.964Z,99205.46
2023-03-26T07:51:35.275Z,99202.27
2023-03-26T07:54:15.408Z,99199.98
2023-03-26T07:57:36.786Z,99193.47
2023-03-26T08:00:36.845Z,99188.36
2023-03-26T08:03:36.028Z,99191.61
2023-03-26T08:06:35.264Z,99184.98
2023-03-26T08:09:30.830Z,99184.92
2023-03-26T08:12:31.988Z,99189.12
2023-03-26T08:15:12.482Z,99188.01
2023-03-26T08:17:47.634Z,99186.11
2023-03-26T08:20:32.582Z,99186.12
2023-03-26T08:23:10.133Z,99186.20
2023-03-26T08:25:53.185Z,99186.05
2023-03-26T08:28:38.029Z,99178.21
2023-03-26T08:31:11.257Z,99174.37
2023-03-26T08:33:41.978Z,99172.05
2023-03-26T08:36:13.335Z,99166.64
2023-03-26T08:38:45.128Z,99166.71
2023-03-26T08:41:48.750Z,99163.35
2023-03-26T08:45:07.120Z,99158.35
2023-03-26T08:48:17.487Z,99158.52
2023-03-26T08:51:16.999Z,99152.86
2023-03-26T08:54:18.684Z,99152.22
2023-03-26T08:57:00.389Z,99147.04
2023-03-26T09:00:05.946Z,99149.20
2023-03-26T09:02:56.911Z,99144.05
2023-03-26T09:05:47.034Z,99147.16
2023-03-26T09:08:59.718Z,99142.84
2023-03-26T09:12:09.371Z,99141.73
2023-03-26T09:15:02.314Z,99142.02
2023-03-26T09:18:23.880Z,99138.50
2023-03-26T09:21:33.343Z,99139.54
2023-03-26T09:24:25.498Z,99135.98
2023-03-26T09:27:09.099Z,99133.20
2023-03-26T09:30:10.104Z,99145.38
2023-03-26T09:33:06.600Z,99140.47
2023-03-26T09:35:52.859Z,99149.16
2023-03-26T09:38:44.034Z,99152.05
2023-03-26T09:41:25.338Z,99152.30
2023-03-26T09:44:36.567Z,99154.64
2023-03-26T09:47:39.350Z,99149.98
2023-03-26T09:50:31.024Z,99148.21
2023-03-26T09:53:24.070Z,99143.77
2023-03-26T09:56:05.788Z,99141.71
2023-03-26T09:59:00.431Z,99142.84
2023-03-26T10:01:40.651Z,99143.27
2023-03-26T10:04:38.503Z,99147.83
2023-03-26T10:07:23.235Z,99151.29
2023-03-26T10:10:02.403Z,99152.48
2023-03-26T10:12:40.674Z,99159.55
2023-03-26T10:15:32.406Z,99159.40
2023-03-26T10:18:27.061Z,99153.48
2023-03-26T10:21:06.224Z,99147.27
2023-03-26T10:23:53.934Z,99146.09
2023-03-26T10:26:39.322Z,99142.63
2023-03-26T10:29:31.079Z,99137.20
2023-03-26T10:32:17.245Z,99132.67
2023-03-26T10:34:57.822Z,99126.64
2023-03-26T10:37:42.527Z,99128.20
2023-03-26T10:40:33.449Z,99130.40
2023-03-26T10:43:29.400Z,99124.93
2023-03-26T10:46:36.085Z,99128.27
2023-03-26T10:49:52.262Z,99119.67
2023-03-26T10:52:26.167Z,99118.14
2023-03-26T10:55:12.148Z,99116.33
2023-03-26T10:57:50.415Z,99115.48
2023-03-26T11:00:25.281Z,99113.66
2023-03-26T11:03:24.234Z,99103.29
2023-03-26T11:06:03.950Z,99107.20
2023-03-26T11:08:43.822Z,99099.73
2023-03-26T11:11:24.885Z,99093.06
2023-03-26T11:14:04.762Z,99091.02
2023-03-26T11:16:50.077Z,99091.21
2023-03-26T11:19:28.763Z,99084.38
2023-03-26T11:22:07.010Z,99080.56
2023-03-26T11:24:53.151Z,99084.20
2023-03-26T11:27:36.373Z,99081.98
2023-03-26T11:30:19.185Z,99082.79
2023-03-26T11:32:52.922Z,99071.69
2023-03-26T11:35:40.482Z,99071.25
2023-03-26T11:38:20.945Z,99066.81
2023-03-26T11:40:55.389Z,99066.09
2023-03-26T11:43:50.470Z,99064.34
2023-03-26T11:46:23.350Z,99065.33
2023-03-26T11:48:59.465Z,99072.95
2023-03-26T11:51:34.829Z,99072.39
2023-03-26T11:54:07.947Z,99070.77
2023-03-26T11:57:05.526Z,99070.29
2023-03-26T11:59:49.054Z,99064.20
2023-03-26T12:02:34.016Z,99062.43
2023-03-26T12:05:15.814Z,99070.92
2023-03-26T12:07:51.333Z,99069.40
2023-03-26T12:10:28.311Z,99069.30
2023-03-26T12:13:02.942Z,99069.44
2023-03-26T12:15:33.555Z,99062.40
2023-03-26T12:18:25.080Z,99065.51
2023-03-26T12:21:08.300Z,99056.25
2023-03-26T12:23:52.497Z,99049.59
2023-03-26T12:26:33.982Z,99051.88
2023-03-26T12:29:11.804Z,99046.92
2023-03-26T12:31:50.714Z,99044.28
2023-03-26T12:34:24.192Z,99043.65
2023-03-26T12:36:56.555Z,99039.76
2023-03-26T12:40:07.330Z,99035.77
2023-03-26T12:44:46.258Z,99034.96
2023-03-26T12:45:21.047Z,99029.61
2023-03-26T12:48:00.800Z,99029.73
2023-03-26T12:50:47.597Z,99025.70
2023-03-26T12:53:30.808Z,99017.85
2023-03-26T12:56:09.371Z,99013.81
2023-03-26T12:58:59.466Z,98997.77
2023-03-26T13:01:41.958Z,98998.21
2023-03-26T13:04:35.550Z,99000.94
2023-03-26T13:07:16.859Z,99001.20
2023-03-26T13:10:08.505Z,98996.88
2023-03-26T13:12:48.240Z,98993.79
2023-03-26T13:15:28.945Z,98992.05
2023-03-26T13:18:16.589Z,98989.24
2023-03-26T13:21:00.604Z,98988.56
2023-03-26T13:23:40.269Z,98983.73
2023-03-26T13:26:19.551Z,98986.90
2023-03-26T13:28:57.761Z,98980.89
2023-03-26T13:31:33.055Z,98982.27
2023-03-26T13:34:12.643Z,98985.15
2023-03-26T13:36:54.564Z,98983.81
2023-03-26T13:39:36.878Z,98984.69
2023-03-26T13:42:27.033Z,98985.20
2023-03-26T13:45:07.070Z,98985.88
2023-03-26T13:47:45.433Z,98984.83
2023-03-26T13:50:24.834Z,98982.79
2023-03-26T13:53:02.188Z,98980.19
2023-03-26T13:55:37.515Z,98982.23
2023-03-26T13:58:18.232Z,98982.27
2023-03-26T14:00:59.232Z,98980.00
2023-03-26T14:03:38.994Z,98978.89
2023-03-26T14:06:18.912Z,98972.68
2023-03-26T14:08:57.409Z,98974.64
2023-03-26T14:11:41.003Z,98972.25
2023-03-26T14:14:15.954Z,98970.65
2023-03-26T14:16:52.022Z,98968.39
2023-03-26T14:19:45.255Z,98968.23
2023-03-26T14:22:28.823Z,98967.84
2023-03-26T14:25:14.397Z,98961.10
2023-03-26T14:27:58.720Z,98959.30
2023-03-26T14:31:12.461Z,98955.40
2023-03-26T14:34:07.216Z,98952.77
2023-03-26T14:37:00.101Z,98954.35
2023-03-26T14:40:02.570Z,98951.56
2023-03-26T14:42:42.806Z,98949.94
2023-03-26T14:45:46.553Z,98952.66
2023-03-26T14:48:37.775Z,98955.79
2023-03-26T14:51:31.463Z,98951.91
2023-03-26T14:54:06.829Z,98944.41
2023-03-26T14:57:00.932Z,98937.61
2023-03-26T15:00:02.185Z,98935.22
2023-03-26T15:03:09.351Z,98935.54
2023-03-26T15:06:09.865Z,98937.45
2023-03-26T15:09:20.425Z,98936.52
2023-03-26T15:12:12.734Z,98934.11
2023-03-26T15:15:13.812Z,98929.63
2023-03-26T15:18:09.007Z,98928.48
2023-03-26T15:21:19.389Z,98922.58
2023-03-26T15:24:16.465Z,98926.95
2023-03-26T15:27:20.344Z,98930.71
2023-03-26T15:30:22.991Z,98931.94
2023-03-26T15:33:19.382Z,98930.98
2023-03-26T15:36:13.988Z,98932.98
2023-03-26T15:39:07.790Z,98937.97
2023-03-26T15:41:47.074Z,98950.98
2023-03-26T15:44:54.046Z,98956.24
2023-03-26T15:47:55.428Z,98959.63
2023-03-26T15:50:38.757Z,98952.84
2023-03-26T15:53:19.777Z,98948.82
2023-03-26T15:56:07.997Z,98943.98
2023-03-26T15:58:50.454Z,98944.19
2023-03-26T16:01:39.501Z,98944.11
2023-03-26T16:04:22.217Z,98940.30
2023-03-26T16:07:02.905Z,98934.94
2023-03-26T16:09:56.403Z,98931.96
2023-03-26T16:12:38.786Z,98931.17
2023-03-26T16:15:29.544Z,98923.00
2023-03-26T16:18:37.245Z,98919.10
2023-03-26T16:21:53.697Z,98912.10
2023-03-26T16:24:32.005Z,98905.40
2023-03-26T16:27:27.170Z,98905.01
2023-03-26T16:30:27.404Z,98908.75
2023-03-26T16:33:05.345Z,98906.13
2023-03-26T16:36:05.323Z,98907.90
2023-03-26T16:38:54.826Z,98903.71
2023-03-26T16:41:28.136Z,98906.33
2023-03-26T16:44:18.410Z,98905.19
2023-03-26T16:47:00.916Z,98904.10
2023-03-26T16:49:47.081Z,98906.02
2023-03-26T16:52:48.435Z,98908.46
2023-03-26T16:55:24.464Z,98907.38
2023-03-26T16:58:05.726Z,98904.87
2023-03-26T17:00:48.697Z,98906.92
2023-03-26T17:03:45.857Z,98902.66
2023-03-26T17:06:28.256Z,98897.70
2023-03-26T17:09:06.997Z,98898.46
2023-03-26T17:11:53.132Z,98898.02
2023-03-26T17:14:39.728Z,98896.30
2023-03-26T17:17:31.315Z,98900.80
2023-03-26T17:20:11.757Z,98899.71
2023-03-26T17:22:59.598Z,98897.59
2023-03-26T17:25:37.314Z,98901.15
2023-03-26T17:28:41.179Z,98899.75
2023-03-26T17:31:24.810Z,98900.91
2023-03-26T17:33:55.690Z,98905.72
2023-03-26T17:36:41.981Z,98907.56
2023-03-26T17:39:48.650Z,98912.02
2023-03-26T17:42:29.291Z,98911.23
2023-03-26T17:45:02.261Z,98907.73
2023-03-26T17:47:38.221Z,98915.05
2023-03-26T17:50:18.618Z,98926.56
2023-03-26T17:52:58.640Z,98928.92
2023-03-26T17:55:34.279Z,98930.91
2023-03-26T17:58:06.669Z,98931.73
2023-03-26T18:00:42.477Z,98928.70
2023-03-26T18:03:21.214Z,98933.48
2023-03-26T18:05:57.338Z,98938.22
2023-03-26T18:08:51.731Z,98933.44
2023-03-26T18:11:51.195Z,98931.28
2023-03-26T18:14:57.024Z,98928.48
2023-03-26T18:17:33.677Z,98927.08
2023-03-26T18:20:09.957Z,98928.59
2023-03-26T18:22:41.092Z,98926.65
2023-03-26T18:25:26.155Z,98927.63
2023-03-26T18:27:57.281Z,98926.88
2023-03-26T18:30:27.963Z,98931.89
2023-03-26T18:33:04.038Z,98926.23
2023-03-26T18:35:43.719Z,98918.36
2023-03-26T18:38:36.257Z,98916.41
2023-03-26T18:41:21.121Z,98917.64
2023-03-26T18:43:51.625Z,98915.40
2023-03-26T18:46:25.114Z,98915.75
2023-03-26T18:48:57.026Z,98912.23
2023-03-26T18:51:32.063Z,98912.70
2023-03-26T18:54:04.912Z,98912.08
2023-03-26T18:56:38.858Z,98908.28
2023-03-26T18:59:28.242Z,98909.36
2023-03-26T19:02:00.077Z,98906.92
2023-03-26T19:04:35.393Z,98906.01
2023-03-26T19:07:11.727Z,98900.11
2023-03-26T19:09:45.555Z,98900.48
2023-03-26T19:12:22.903Z,98896.54
2023-03-26T19:15:05.078Z,98898.63
2023-03-26T19:17:41.599Z,98897.10
2023-03-26T19:20:18.391Z,98892.60
2023-03-26T19:22:51.331Z,98891.29
2023-03-26T19:25:26.577Z,98883.67
2023-03-26T19:27:57.123Z,98882.00
2023-03-26T19:30:32.848Z,98877.39
2023-03-26T19:33:12.904Z,98874.67
2023-03-26T19:35:46.394Z,98870.36
2023-03-26T19:38:24.351Z,98876.84
2023-03-26T19:40:58.111Z,98879.65
2023-03-26T19:43:29.710Z,98880.56
2023-03-26T19:46:04.842Z,98880.43
2023-03-26T19:48:46.113Z,98880.96
2023-03-26T19:51:27.914Z,98876.30
2023-03-26T19:54:04.402Z,98875.74
2023-03-26T19:56:35.531Z,98875.92
2023-03-26T19:59:09.091Z,98876.21
2023-03-26T20:01:41.796Z,98875.41
2023-03-26T20:04:27.594Z,98871.64
2023-03-26T20:07:01.528Z,98871.85
2023-03-26T20:09:31.915Z,98873.24
2023-03-26T20:12:03.363Z,98870.48
2023-03-26T20:14:34.202Z,98870.46
2023-03-26T20:17:05.459Z,98867.52
2023-03-26T20:19:37.392Z,98863.93
2023-03-26T20:22:12.690Z,98864.50
2023-03-26T20:24:45.723Z,98858.27
2023-03-26T20:27:16.466Z,98856.18
2023-03-26T20:29:48.238Z,98850.13
2023-03-26T20:32:26.414Z,98840.42
2023-03-26T20:34:57.760Z,98842.71
2023-03-26T20:37:30.343Z,98834.80
2023-03-26T20:40:02.289Z,98839.40
2023-03-26T20:42:36.018Z,98838.68
2023-03-26T20:45:18.061Z,98837.24
2023-03-26T20:47:50.707Z,98836.35
2023-03-26T20:50:26.828Z,98834.52
2023-03-26T20:52:59.890Z,98830.47
2023-03-26T20:55:30.680Z,98828.64
2023-03-26T20:58:01.118Z,98823.99
2023-03-26T21:00:34.810Z,98821.42
2023-03-26T21:03:07.498Z,98819.02
2023-03-26T21:05:39.042Z,98817.48
2023-03-26T21:08:15.088Z,98816.00
2023-03-26T21:10:46.250Z,98816.09
2023-03-26T21:13:29.168Z,98814.41
2023-03-26T21:16:02.375Z,98815.40
2023-03-26T21:18:34.072Z,98824.51
2023-03-26T21:21:21.144Z,98832.19
2023-03-26T21:23:59.440Z,98842.05
2023-03-26T21:26:41.791Z,98842.36
2023-03-26T21:29:13.497Z,98837.18
2023-03-26T21:31:45.101Z,98831.23
2023-03-26T21:34:17.112Z,98826.31
2023-03-26T21:36:49.432Z,98821.48
2023-03-26T21:39:22.873Z,98816.33
2023-03-26T21:42:04.753Z,98820.90
2023-03-26T21:44:36.912Z,98822.16
2023-03-26T21:47:09.961Z,98822.20
2023-03-26T21:49:41.411Z,98816.46
2023-03-26T21:52:15.391Z,98813.86
2023-03-26T21:54:46.856Z,98805.92
2023-03-26T21:57:37.556Z,98804.79
2023-03-26T22:00:16.368Z,98814.11
2023-03-26T22:03:00.510Z,98818.88
2023-03-26T22:05:38.802Z,98810.77
2023-03-26T22:08:16.143Z,98811.49
2023-03-26T22:10:47.517Z,98814.98
2023-03-26T22:13:17.792Z,98814.27
2023-03-26T22:15:48.153Z,98819.86
2023-03-26T22:18:21.556Z,98824.36
2023-03-26T22:20:51.974Z,98821.19
2023-03-26T22:23:22.334Z,98822.21
2023-03-26T22:25:52.708Z,98820.98
2023-03-26T22:28:23.120Z,98817.84
2023-03-26T22:30:53.794Z,98816.14
2023-03-26T22:33:24.176Z,98819.00
2023-03-26T22:35:56.370Z,98823.23
2023-03-26T22:38:26.692Z,98821.36
2023-03-26T22:41:00.216Z,98818.28
2023-03-26T22:43:31.590Z,98816.80
2023-03-26T22:46:02.573Z,98825.23
2023-03-26T22:48:33.661Z,98830.01
2023-03-26T22:51:06.386Z,98831.11
2023-03-26T22:53:37.311Z,98827.88
2023-03-26T22:56:09.288Z,98824.95
2023-03-26T22:58:39.969Z,98824.65
2023-03-26T23:01:13.464Z,98826.73
2023-03-26T23:03:44.815Z,98819.40
2023-03-26T23:06:16.176Z,98822.67
2023-03-26T23:08:46.747Z,98823.20
2023-03-26T23:11:18.632Z,98820.22
2023-03-26T23:13:49.534Z,98819.70
2023-03-26T23:16:21.536Z,98813.27
2023-03-26T23:18:52.057Z,98815.04
2023-03-26T23:21:23.855Z,98810.87
2023-03-26T23:23:54.155Z,98812.20
2023-03-26T23:26:25.191Z,98816.92
2023-03-26T23:28:55.500Z,98822.27
2023-03-26T23:31:27.473Z,98825.07
2023-03-26T23:33:58.050Z,98830.27
2023-03-26T23:36:28.857Z,98832.02
2023-03-26T23:38:59.424Z,98827.80
2023-03-26T23:41:29.839Z,98827.92
2023-03-26T23:44:00.166Z,98828.62
2023-03-26T23:46:33.917Z,98833.69
2023-03-26T23:49:04.507Z,98843.48
2023-03-26T23:51:36.075Z,98846.13
2023-03-26T23:54:07.651Z,98847.00
2023-03-26T23:56:38.154Z,98851.00
2023-03-26T23:59:08.541Z,98847.17
